หน้าหลัก
METAR-TAF:

METAR-TAF

ท่าอากาศยาน :

ท่าอากาศยานนานาชาติคูเวต

คูเวตซิตี, คูเวต

ละติจูด: 29-13N, ลองจิจูด: 047-59E, ความสูง: 55 ม.

การสังเกตสภาพอากาศปัจจุบัน

รายงานได้ทำขึ้นเมื่อ 55 นาทีที่แล้ว ณ เวลา 18:00 UTC
ลม 4 นอตจากใต้
อุณหภูมิ 35°C
ความชื้น 17%
ความกดอากาศ 1003 hPa
ทัศนวิสัย: 8000 ม.
ท้องฟ้าแจ่มใส

METAR: OKBK 011800Z 19004KT 8000 SKC 35/06 Q1003 NOSIG

เวลา: 21:55 (18:55 UTC)

การพยากรณ์

รายงานได้ทำขึ้นเมื่อ 2 ชั่วโมงและ 10 นาทีที่แล้ว ณ เวลา 16:45 UTC
การพยากรณ์มีผลตั้งแต่วันที่ 01 ณ เวลา 18 UTC จนถึงวันที่ 02 ณ เวลา 24 UTC
ลม 3 นอตจากทิศทางซึ่งแปรผันได้
ทัศนวิสัย: 7000 ม.
กำลังกลายเป็น
ตั้งแต่วันที่ 02 ณ เวลา 00 UTC จนถึงวันที่ 02 ณ เวลา 02 UTC
ลม 12 นอตจากใต้

TAF: OKBK 011645Z 0118/0224 VRB03KT 7000 NSC BECMG 0200/0202 17012KT

สังเกตการณ์สภาพอากาศและพยากรณ์อากาศของสนามบินมากกว่า 4000 แห่ง (รายงาน METAR และ TAF).

สถานีที่ดูได้จะแสดงไว้ด้วยจุดสีเหลืองและสีแดงบนแผนที่.

เลื่อนเมาส์ไปเหนือจุดเพื่อดูชื่อสถานี.

แล้วคลิกเพื่อดูสังเกตการณ์และการพยากรณ์สภาพอากาศ.

ในการเปลี่ยนแผนที่: คลิกที่ปุ่มสีเขียวที่มีกากบาทสีดำเพื่อซูมเข้า; ที่ปุ่มสีเขียวที่มีขีดเพื่อซูมออก; หรือที่ลูกศรสีเขียวเพื่อไปยังแผนที่ที่อยู่ติดกัน.


METAR-TAF: